Time;durP1;ratioP1;P1;durP2;ratioP2;P2;SDS_P1;SDS_P2;PMS_P1;PMS_P2;Temp;Humidity;BMP_temperature;BMP_pressure;BME280_temperature;BME280_humidity;BME280_pressure;Samples;Min_cycle;Max_cycle;Signal;HPM_P1;HPM_P2
2022/10/29 00:01:21;;;;;;;6.57;4.17;;;9.70;99.90;10.20;97821.00;;;;4972475;28;20862;-69
2022/10/29 00:04:10;;;;;;;8.73;4.20;;;9.50;99.90;10.30;97808.00;;;;4969956;28;20600;-69
2022/10/29 00:06:59;;;;;;;4.90;3.53;;;9.50;99.90;10.30;97805.00;;;;4968345;28;20200;-69
2022/10/29 00:09:49;;;;;;;4.47;3.80;;;9.40;99.90;10.20;97801.00;;;;4966139;28;20235;-69
2022/10/29 00:12:38;;;;;;;8.77;4.17;;;9.40;99.90;10.20;97803.00;;;;4971116;28;20203;-70
2022/10/29 00:15:26;;;;;;;7.53;3.93;;;9.30;99.90;10.40;97805.00;;;;4971750;28;20208;-69
2022/10/29 00:18:15;;;;;;;7.87;3.67;;;9.40;99.90;10.10;97802.00;;;;4971767;28;20285;-70
2022/10/29 00:21:06;;;;;;;5.80;3.57;;;9.30;99.90;9.80;97796.00;;;;4971974;28;20259;-69
2022/10/29 00:23:57;;;;;;;4.40;3.30;;;9.20;99.90;9.80;97808.00;;;;4971741;28;20211;-71
2022/10/29 00:26:47;;;;;;;4.30;3.17;;;9.10;99.90;9.70;97803.00;;;;4972631;28;20718;-69
2022/10/29 00:29:35;;;;;;;5.30;4.23;;;9.10;99.90;9.70;97801.00;;;;4970697;28;20258;-70
2022/10/29 00:32:24;;;;;;;4.07;3.67;;;9.10;99.90;9.90;97806.00;;;;4971529;28;20211;-70
2022/10/29 00:35:13;;;;;;;4.27;3.07;;;9.10;99.90;10.00;97805.00;;;;4970396;28;20214;-72
2022/10/29 00:38:01;;;;;;;6.00;3.37;;;9.10;99.90;10.20;97804.00;;;;4972165;28;20627;-69
2022/10/29 00:40:50;;;;;;;10.77;3.90;;;9.10;99.90;10.30;97814.00;;;;4962991;28;20781;-69
2022/10/29 00:43:46;;;;;;;4.93;4.00;;;9.30;99.90;10.70;97808.00;;;;4965766;28;20269;-69
2022/10/29 00:46:36;;;;;;;4.60;3.30;;;9.40;99.90;10.90;97812.00;;;;4959662;28;20253;-69
2022/10/29 00:49:27;;;;;;;6.93;3.80;;;9.50;99.90;10.90;97808.00;;;;4971045;28;20211;-70
2022/10/29 00:52:17;;;;;;;8.13;4.10;;;9.60;99.90;10.00;97807.00;;;;4966975;28;20207;-69
2022/10/29 00:55:10;;;;;;;4.03;3.23;;;9.50;99.90;9.80;97810.00;;;;4970927;28;20278;-71
2022/10/29 00:57:59;;;;;;;5.73;3.27;;;9.20;99.90;10.40;97816.00;;;;4967098;28;20250;-69
2022/10/29 01:00:49;;;;;;;6.37;3.20;;;9.20;99.90;10.30;97801.00;;;;4971133;28;20289;-69
2022/10/29 01:03:39;;;;;;;4.57;3.60;;;9.30;99.90;10.60;97800.00;;;;4971707;28;20763;-69
2022/10/29 01:06:30;;;;;;;5.70;4.00;;;9.40;99.90;10.90;97799.00;;;;4963288;28;20200;-69
2022/10/29 01:09:19;;;;;;;5.10;3.80;;;9.50;99.90;10.30;97802.00;;;;4968909;28;20978;-72
2022/10/29 01:12:33;;;;;;;4.23;3.83;;;9.60;99.90;9.70;97790.00;;;;4970182;28;20628;-69
2022/10/29 01:15:31;;;;;;;5.53;3.07;;;9.30;99.90;9.80;97786.00;;;;4966251;28;20254;-69
2022/10/29 01:18:31;;;;;;;4.53;3.73;;;9.20;99.90;9.90;97786.00;;;;4951509;28;20718;-69
2022/10/29 01:21:41;;;;;;;3.50;3.17;;;9.10;99.90;9.70;97780.00;;;;5002215;23;20242;-81
2022/10/29 01:25:38;;;;;;;9.57;3.77;;;9.00;99.90;10.10;97778.00;;;;5004477;28;20205;-84
2022/10/29 01:28:46;;;;;;;6.57;3.83;;;9.00;99.90;10.30;97782.00;;;;4912692;29;20236;-84
2022/10/29 01:31:41;;;;;;;4.93;3.30;;;9.10;99.90;9.80;97775.00;;;;4935470;28;20201;-83
2022/10/29 01:34:40;;;;;;;4.60;3.40;;;9.10;99.90;9.60;97767.00;;;;4991727;28;20226;-85
2022/10/29 01:37:37;;;;;;;6.20;3.47;;;8.90;99.90;10.10;97771.00;;;;4991294;28;20682;-83
2022/10/29 01:40:32;;;;;;;4.40;3.23;;;9.00;99.90;10.20;97770.00;;;;4982561;28;20213;-85
2022/10/29 01:43:25;;;;;;;4.83;3.43;;;9.00;99.90;10.30;97765.00;;;;4995888;28;20210;-85
2022/10/29 01:46:21;;;;;;;3.70;3.10;;;9.10;99.90;10.10;97759.00;;;;4996253;28;20295;-85
2022/10/29 01:49:16;;;;;;;4.87;3.17;;;9.10;99.90;9.50;97766.00;;;;4998225;28;20222;-85
2022/10/29 01:52:09;;;;;;;3.20;2.80;;;9.00;99.90;9.60;97766.00;;;;4989593;28;20214;-83
2022/10/29 01:54:58;;;;;;;5.73;4.10;;;9.00;99.90;9.80;97770.00;;;;4991764;28;20206;-81
2022/10/29 01:57:47;;;;;;;3.63;3.20;;;9.00;99.90;10.10;97768.00;;;;4992152;28;20212;-85
2022/10/29 02:00:49;;;;;;;3.23;2.80;;;9.10;99.90;10.20;97761.00;;;;4992927;28;20206;-84
2022/10/29 02:03:49;;;;;;;5.73;2.87;;;9.20;99.90;10.30;97767.00;;;;4995380;28;20202;-84
2022/10/29 02:06:49;;;;;;;10.47;3.47;;;9.20;99.90;10.50;97765.00;;;;4987037;28;20651;-86
2022/10/29 02:09:52;;;;;;;4.57;4.00;;;9.30;99.90;10.60;97762.00;;;;4987424;28;20211;-85
2022/10/29 02:12:47;;;;;;;5.63;2.97;;;9.40;99.90;10.60;97757.00;;;;4986792;28;20198;-85
2022/10/29 02:15:42;;;;;;;5.13;3.53;;;9.40;99.90;9.90;97751.00;;;;4994204;28;20226;-82
2022/10/29 02:18:31;;;;;;;3.60;3.27;;;9.30;99.90;9.80;97751.00;;;;4996688;28;20211;-84
2022/10/29 02:21:21;;;;;;;4.20;3.03;;;9.10;99.90;10.00;97752.00;;;;4993357;28;20918;-85
2022/10/29 02:24:11;;;;;;;5.77;3.97;;;9.10;99.90;10.00;97753.00;;;;4993252;28;20207;-84
2022/10/29 02:27:00;;;;;;;7.27;3.53;;;9.10;99.90;9.40;97754.00;;;;4995553;28;20241;-84
2022/10/29 02:29:48;;;;;;;5.80;2.70;;;8.90;99.90;9.50;97754.00;;;;4993326;28;20195;-83
2022/10/29 02:32:37;;;;;;;6.87;3.37;;;8.80;99.90;9.80;97753.00;;;;4993139;28;20206;-85
2022/10/29 02:35:26;;;;;;;5.20;2.77;;;8.80;99.90;9.80;97749.00;;;;4993878;28;20274;-85
2022/10/29 02:38:15;;;;;;;4.97;3.30;;;8.90;99.90;9.90;97748.00;;;;4994207;28;20238;-83
2022/10/29 02:41:05;;;;;;;4.50;3.30;;;8.90;99.90;9.90;97751.00;;;;4994473;28;20222;-85
2022/10/29 02:43:54;;;;;;;6.23;2.97;;;8.90;99.90;9.70;97746.00;;;;4996215;28;20662;-85
2022/10/29 02:46:42;;;;;;;6.90;3.03;;;8.90;99.90;9.40;97747.00;;;;4994993;28;20230;-85
2022/10/29 02:49:31;;;;;;;5.13;3.60;;;8.80;99.90;9.60;97748.00;;;;4993690;28;20677;-84
2022/10/29 02:52:20;;;;;;;3.90;3.57;;;8.80;99.90;9.60;97755.00;;;;4994735;28;20653;-84
2022/10/29 02:55:09;;;;;;;3.80;2.77;;;8.70;99.90;9.60;97752.00;;;;4994278;28;20214;-85
2022/10/29 02:57:59;;;;;;;4.30;3.27;;;8.80;99.90;10.00;97741.00;;;;4988232;28;20199;-84
2022/10/29 03:00:50;;;;;;;21.37;3.83;;;8.80;99.90;10.00;97739.00;;;;4992050;28;20235;-84
2022/10/29 03:03:38;;;;;;;8.13;4.17;;;8.90;99.90;9.90;97750.00;;;;4986195;28;20206;-85
2022/10/29 03:06:27;;;;;;;4.10;3.53;;;9.80;99.90;9.50;97748.00;;;;4981533;28;20258;-84
2022/10/29 03:09:16;;;;;;;5.40;3.13;;;8.80;99.90;9.80;97746.00;;;;4980109;28;20268;-84
2022/10/29 03:12:05;;;;;;;3.43;2.97;;;8.80;99.90;10.00;97755.00;;;;4992546;28;20309;-84
2022/10/29 03:14:56;;;;;;;6.30;3.20;;;8.90;99.90;10.30;97747.00;;;;4991674;28;20206;-85
2022/10/29 03:17:44;;;;;;;4.67;3.30;;;9.00;99.90;10.10;97752.00;;;;4992136;28;20685;-84
2022/10/29 03:20:33;;;;;;;4.17;2.70;;;9.00;99.90;9.90;97751.00;;;;4993336;28;20210;-84
2022/10/29 03:23:22;;;;;;;4.53;3.43;;;9.00;99.90;10.00;97745.00;;;;4992524;28;20308;-85
2022/10/29 03:26:10;;;;;;;5.73;3.63;;;9.00;99.90;10.20;97743.00;;;;4986694;28;20250;-85
2022/10/29 03:28:59;;;;;;;8.70;3.63;;;9.00;99.90;10.30;97744.00;;;;4987116;28;20258;-86
2022/10/29 03:31:49;;;;;;;6.03;3.83;;;9.10;99.90;10.40;97749.00;;;;4991042;28;20198;-85
2022/10/29 03:34:38;;;;;;;7.70;3.63;;;9.20;99.90;10.40;97736.00;;;;4987501;28;20199;-85
2022/10/29 03:37:27;;;;;;;4.43;3.67;;;9.30;99.90;10.10;97733.00;;;;4991182;28;20237;-84
2022/10/29 03:40:16;;;;;;;3.67;3.17;;;9.20;99.90;9.40;97727.00;;;;4985528;28;20203;-83
2022/10/29 03:43:04;;;;;;;6.47;3.23;;;9.00;99.90;9.30;97733.00;;;;4991971;28;20277;-84
2022/10/29 03:45:55;;;;;;;4.13;3.10;;;8.80;99.90;9.40;97730.00;;;;4994440;28;20281;-85
2022/10/29 03:48:45;;;;;;;2.70;2.03;;;8.70;99.90;9.20;97733.00;;;;4989327;28;20234;-84
2022/10/29 03:51:33;;;;;;;3.30;2.60;;;8.60;99.90;9.30;97728.00;;;;4984911;28;20213;-84
2022/10/29 03:54:22;;;;;;;8.37;3.17;;;8.60;99.90;9.60;97730.00;;;;4975619;28;20572;-84
2022/10/29 03:57:11;;;;;;;5.53;3.20;;;8.70;99.90;9.80;97738.00;;;;4973763;28;20329;-83
2022/10/29 04:00:00;;;;;;;5.43;3.43;;;8.80;99.90;9.90;97732.00;;;;4982114;28;20293;-83
2022/10/29 04:02:49;;;;;;;5.77;3.67;;;8.80;99.90;9.90;97730.00;;;;4988962;28;20285;-84
2022/10/29 04:05:39;;;;;;;5.37;3.73;;;8.80;99.90;10.10;97729.00;;;;4992504;28;20222;-86
2022/10/29 04:08:28;;;;;;;3.90;3.40;;;8.90;99.90;9.80;97724.00;;;;4996885;28;20207;-84
2022/10/29 04:11:16;;;;;;;6.23;3.17;;;8.90;99.90;9.80;97734.00;;;;4982387;28;20235;-84
2022/10/29 04:14:05;;;;;;;4.20;3.80;;;8.90;99.90;10.30;97743.00;;;;4980920;28;20221;-83
2022/10/29 04:16:54;;;;;;;7.37;4.00;;;9.00;99.90;10.30;97740.00;;;;4994072;28;20222;-84
2022/10/29 04:19:43;;;;;;;5.43;4.00;;;9.10;99.90;10.30;97739.00;;;;4992911;28;20222;-85
2022/10/29 04:22:33;;;;;;;7.00;3.27;;;9.20;99.90;9.80;97732.00;;;;4992767;28;20219;-84
2022/10/29 04:25:41;;;;;;;4.10;3.60;;;9.10;99.90;10.00;97739.00;;;;4988542;28;20225;-85
2022/10/29 04:28:51;;;;;;;5.73;3.03;;;9.00;99.90;9.90;97748.00;;;;4986300;28;20211;-84
2022/10/29 04:31:39;;;;;;;4.97;3.33;;;9.00;99.90;10.00;97735.00;;;;4992158;28;20222;-85
2022/10/29 04:34:28;;;;;;;4.53;2.80;;;8.90;99.90;9.80;97748.00;;;;4992783;28;20690;-83
2022/10/29 04:37:17;;;;;;;11.27;6.30;;;8.90;99.90;9.90;97752.00;;;;4996092;28;20219;-85
2022/10/29 04:40:09;;;;;;;9.00;3.93;;;8.90;99.90;9.70;97741.00;;;;4994785;28;20704;-85
2022/10/29 04:42:58;;;;;;;7.00;3.17;;;8.90;99.90;10.00;97737.00;;;;4996362;28;20226;-85
2022/10/29 04:45:52;;;;;;;6.43;3.57;;;8.90;99.90;9.90;97745.00;;;;5000192;28;20218;-85
2022/10/29 04:48:40;;;;;;;10.20;3.80;;;8.80;99.90;9.90;97743.00;;;;4993511;28;20202;-84
2022/10/29 04:51:29;;;;;;;6.37;3.93;;;8.80;99.90;10.30;97746.00;;;;4988898;28;20203;-87
2022/10/29 04:54:18;;;;;;;9.87;3.70;;;8.90;99.90;10.40;97743.00;;;;4992554;28;20238;-85
2022/10/29 04:57:08;;;;;;;4.43;3.17;;;9.00;99.90;10.20;97745.00;;;;4996810;28;20685;-85
2022/10/29 04:59:57;;;;;;;6.20;3.63;;;9.10;99.90;9.60;97735.00;;;;4995352;28;20206;-85
2022/10/29 05:02:48;;;;;;;6.43;3.67;;;9.00;99.90;9.10;97729.00;;;;4995552;28;20831;-84
2022/10/29 05:05:39;;;;;;;25.63;13.23;;;8.70;99.90;9.60;97741.00;;;;4996490;28;20316;-85
2022/10/29 05:08:27;;;;;;;27.67;14.87;;;8.70;99.90;9.60;97733.00;;;;4997994;28;20207;-85
2022/10/29 05:11:16;;;;;;;21.37;14.77;;;8.70;99.90;9.90;97729.00;;;;4994152;28;20206;-85
2022/10/29 05:14:06;;;;;;;14.17;10.73;;;8.80;99.90;9.80;97727.00;;;;4987221;28;20207;-86
2022/10/29 05:16:55;;;;;;;6.57;4.40;;;8.90;99.90;9.60;97729.00;;;;4977304;28;20235;-86
2022/10/29 05:19:44;;;;;;;9.13;3.70;;;8.90;99.90;9.60;97737.00;;;;4981741;28;20199;-86
2022/10/29 05:22:32;;;;;;;8.27;3.23;;;8.80;99.90;9.30;97739.00;;;;4995987;28;20222;-81
2022/10/29 05:25:21;;;;;;;4.03;3.43;;;8.70;99.90;9.10;97731.00;;;;4994265;28;20682;-85
2022/10/29 05:28:13;;;;;;;4.57;3.47;;;8.60;99.90;9.50;97745.00;;;;5004973;23;20229;-89
2022/10/29 05:31:03;;;;;;;6.30;3.20;;;8.60;99.90;9.50;97737.00;;;;5010371;28;20288;-88
2022/10/29 05:33:52;;;;;;;7.80;4.20;;;8.60;99.90;9.80;97745.00;;;;5007251;28;20245;-88
2022/10/29 05:36:41;;;;;;;8.30;4.20;;;8.70;99.90;9.70;97748.00;;;;5010740;28;20608;-89
2022/10/29 05:39:30;;;;;;;8.67;3.57;;;8.80;99.90;9.80;97747.00;;;;5006883;28;20281;-88
2022/10/29 05:42:18;;;;;;;5.13;4.13;;;8.80;99.90;9.40;97747.00;;;;5008603;28;20228;-88
2022/10/29 05:45:09;;;;;;;5.30;3.57;;;8.70;99.90;9.30;97749.00;;;;5011574;28;20220;-87
2022/10/29 05:48:02;;;;;;;3.87;2.93;;;8.60;99.90;9.70;97757.00;;;;5010431;28;20261;-87
2022/10/29 05:50:51;;;;;;;7.33;3.13;;;8.70;99.90;10.00;97743.00;;;;5010535;28;20208;-88
2022/10/29 05:53:39;;;;;;;4.37;3.50;;;8.70;99.90;9.90;97743.00;;;;5007209;28;20229;-87
2022/10/29 05:56:28;;;;;;;3.43;3.13;;;8.80;99.90;10.20;97750.00;;;;5011100;28;20206;-88
2022/10/29 05:59:17;;;;;;;8.83;3.23;;;8.90;99.90;10.50;97741.00;;;;5008950;28;20200;-89
2022/10/29 06:02:06;;;;;;;4.30;2.90;;;9.00;99.90;10.50;97743.00;;;;5009899;28;20198;-88
2022/10/29 06:04:56;;;;;;;7.40;3.80;;;9.10;99.90;10.70;97744.00;;;;5008688;28;20210;-88
2022/10/29 06:07:45;;;;;;;4.87;3.27;;;9.30;99.90;10.10;97748.00;;;;5014145;28;20233;-88
2022/10/29 06:10:33;;;;;;;4.80;2.87;;;9.20;99.90;9.90;97747.00;;;;5011359;28;20213;-88
2022/10/29 06:13:22;;;;;;;9.33;3.60;;;9.10;99.90;10.30;97747.00;;;;5010815;28;20335;-88
2022/10/29 06:16:11;;;;;;;5.90;3.80;;;9.10;99.90;10.30;97748.00;;;;5010546;28;20210;-88
2022/10/29 06:19:00;;;;;;;5.40;3.90;;;9.10;99.90;10.40;97747.00;;;;5012262;28;20634;-89
2022/10/29 06:21:51;;;;;;;4.23;3.37;;;9.30;99.90;9.80;97742.00;;;;5008446;28;20206;-88
2022/10/29 06:24:40;;;;;;;2.83;2.40;;;9.20;99.90;9.80;97745.00;;;;5004985;28;20225;-88
2022/10/29 06:27:29;;;;;;;3.87;2.63;;;9.10;99.90;9.90;97744.00;;;;5011876;28;20210;-89
2022/10/29 06:30:18;;;;;;;3.53;3.00;;;9.00;99.90;9.90;97744.00;;;;5010785;28;20202;-88
2022/10/29 06:33:07;;;;;;;2.77;2.40;;;9.00;99.90;10.20;97741.00;;;;5009724;28;20225;-88
2022/10/29 06:35:59;;;;;;;7.03;3.60;;;9.10;99.90;10.20;97736.00;;;;5006663;28;20289;-90
2022/10/29 06:38:49;;;;;;;6.43;2.87;;;9.20;99.90;10.20;97740.00;;;;5008145;28;20202;-89
2022/10/29 06:41:38;;;;;;;8.10;3.13;;;9.30;99.90;10.50;97725.00;;;;5003997;28;20308;-89
2022/10/29 06:44:27;;;;;;;5.17;2.73;;;9.30;99.90;10.70;97741.00;;;;5011904;28;20616;-89
2022/10/29 06:47:15;;;;;;;5.73;3.07;;;9.40;99.90;10.30;97748.00;;;;5013786;28;20213;-89
2022/10/29 06:50:05;;;;;;;7.40;3.60;;;9.40;99.90;10.20;97742.00;;;;5010607;28;20193;-88
2022/10/29 06:52:56;;;;;;;3.73;2.40;;;9.40;99.90;10.20;97744.00;;;;5006743;28;20725;-89
2022/10/29 06:55:46;;;;;;;4.77;2.87;;;10.60;99.90;10.30;97740.00;;;;5007499;28;20202;-89
2022/10/29 06:58:35;;;;;;;3.13;2.33;;;9.40;99.90;10.50;97738.00;;;;5006017;28;20213;-89
2022/10/29 07:01:25;;;;;;;6.10;3.70;;;9.60;99.90;11.00;97748.00;;;;5009422;28;20202;-89
2022/10/29 07:04:17;;;;;;;4.53;4.07;;;9.70;99.90;11.30;97742.00;;;;5007561;28;20237;-88
2022/10/29 07:07:05;;;;;;;3.27;2.50;;;9.90;99.90;11.30;97739.00;;;;5006828;28;20197;-88
2022/10/29 07:09:54;;;;;;;4.57;3.07;;;10.00;99.90;11.00;97752.00;;;;5008927;28;20664;-89
2022/10/29 07:12:45;;;;;;;3.00;2.70;;;10.10;99.90;11.10;97752.00;;;;5007669;28;20232;-89
2022/10/29 07:15:34;;;;;;;4.83;3.70;;;10.10;99.90;11.70;97760.00;;;;5016539;28;20253;-89
2022/10/29 07:18:22;;;;;;;4.90;3.13;;;10.30;99.90;11.70;97753.00;;;;5006408;28;20466;-86
2022/10/29 07:21:12;;;;;;;8.23;3.60;;;10.30;99.90;11.70;97759.00;;;;5016506;28;20231;-87
2022/10/29 07:24:01;;;;;;;7.03;2.90;;;10.40;99.90;11.60;97752.00;;;;5017074;28;20238;-87
2022/10/29 07:26:50;;;;;;;6.20;4.03;;;10.50;99.90;11.60;97756.00;;;;5014303;28;20264;-86
2022/10/29 07:29:40;;;;;;;5.07;3.07;;;10.60;99.90;11.90;97759.00;;;;5012697;28;20205;-85
2022/10/29 07:32:29;;;;;;;6.50;4.13;;;10.70;99.90;12.00;97756.00;;;;5013468;28;20229;-86
2022/10/29 07:35:18;;;;;;;7.77;3.40;;;10.80;99.90;12.10;97756.00;;;;5007624;28;20230;-84
2022/10/29 07:38:08;;;;;;;5.93;4.00;;;10.90;99.90;12.50;97751.00;;;;5008736;28;20659;-85
2022/10/29 07:40:58;;;;;;;9.43;4.10;;;11.10;99.90;13.00;97759.00;;;;5011382;28;20263;-85
2022/10/29 07:43:46;;;;;;;11.17;5.77;;;11.30;99.90;13.40;97750.00;;;;5011675;28;20230;-85
2022/10/29 07:46:36;;;;;;;4.67;3.73;;;11.60;99.90;13.40;97756.00;;;;5012014;28;20299;-86
2022/10/29 07:49:25;;;;;;;11.10;5.10;;;11.80;99.90;13.70;97755.00;;;;5006632;28;20349;-86
2022/10/29 07:52:14;;;;;;;6.40;4.50;;;12.10;99.90;13.80;97755.00;;;;5008075;28;20296;-85
2022/10/29 07:55:03;;;;;;;7.20;5.17;;;12.20;99.90;14.10;97747.00;;;;5013568;28;20320;-85
2022/10/29 07:57:57;;;;;;;5.17;4.67;;;12.40;99.90;14.30;97751.00;;;;5010017;28;20588;-86
2022/10/29 08:00:46;;;;;;;5.90;4.40;;;12.60;99.90;14.60;97762.00;;;;5003384;28;20264;-86
2022/10/29 08:03:37;;;;;;;5.10;3.90;;;12.80;99.90;14.90;97756.00;;;;5013653;23;20237;-67
2022/10/29 08:06:25;;;;;;;6.10;4.10;;;13.00;99.90;14.90;97752.00;;;;4972347;28;20357;-67
2022/10/29 08:09:14;;;;;;;6.17;4.63;;;13.20;99.90;15.30;97754.00;;;;4975249;28;20206;-67
2022/10/29 08:12:05;;;;;;;3.93;3.47;;;13.40;99.90;15.70;97749.00;;;;4975725;28;20226;-67
2022/10/29 08:14:54;;;;;;;9.77;3.87;;;13.70;99.90;15.60;97756.00;;;;4974194;28;20223;-67
2022/10/29 08:17:43;;;;;;;7.63;4.03;;;13.90;99.90;15.70;97746.00;;;;4972938;28;20207;-67
2022/10/29 08:20:33;;;;;;;5.80;3.93;;;14.00;99.90;15.80;97745.00;;;;4969151;28;20247;-67
2022/10/29 08:23:22;;;;;;;8.00;3.70;;;14.20;99.90;16.00;97741.00;;;;4972625;28;20285;-68
2022/10/29 08:26:11;;;;;;;6.17;4.10;;;14.30;99.90;16.00;97746.00;;;;4971966;28;20199;-69
2022/10/29 08:29:00;;;;;;;9.67;4.60;;;14.40;99.90;16.00;97735.00;;;;4970406;28;20585;-68
2022/10/29 08:31:48;;;;;;;5.10;3.67;;;14.60;99.90;16.40;97732.00;;;;4966338;28;20220;-69
2022/10/29 08:34:37;;;;;;;5.70;4.20;;;14.70;99.90;16.50;97735.00;;;;4967081;28;20290;-70
2022/10/29 08:37:27;;;;;;;7.63;4.00;;;14.80;99.90;16.70;97730.00;;;;4973727;28;20203;-69
2022/10/29 08:40:28;;;;;;;5.53;4.10;;;15.00;99.90;16.80;97729.00;;;;4973948;28;20749;-70
2022/10/29 08:43:52;;;;;;;7.53;4.20;;;15.10;99.90;17.20;97719.00;;;;4969543;28;20214;-68
2022/10/29 08:46:46;;;;;;;5.57;4.00;;;15.30;99.90;17.60;97728.00;;;;4963033;28;20218;-68
2022/10/29 08:49:41;;;;;;;5.83;3.53;;;15.50;99.90;17.80;97719.00;;;;4965080;28;20235;-69
2022/10/29 08:52:36;;;;;;;7.53;3.00;;;15.80;99.90;17.70;97724.00;;;;4963917;28;20211;-68
2022/10/29 08:55:34;;;;;;;5.87;3.87;;;16.00;99.90;18.10;97728.00;;;;4971249;28;20263;-67
2022/10/29 08:58:33;;;;;;;5.43;3.40;;;16.20;99.90;18.30;97734.00;;;;4974165;28;20258;-69
2022/10/29 09:01:23;;;;;;;4.43;3.67;;;16.40;99.90;18.80;97726.00;;;;4970161;28;21067;-69
2022/10/29 09:04:23;;;;;;;6.97;3.10;;;16.70;99.90;19.00;97730.00;;;;4968813;28;20210;-70
2022/10/29 09:07:39;;;;;;;3.03;2.73;;;16.90;99.90;19.20;97716.00;;;;4971033;28;20207;-69
2022/10/29 09:10:35;;;;;;;6.10;3.50;;;17.10;99.90;19.00;97730.00;;;;4972909;28;20719;-69
2022/10/29 09:13:45;;;;;;;5.40;3.07;;;17.30;99.90;19.10;97720.00;;;;4967093;28;20581;-69
2022/10/29 09:16:42;;;;;;;6.30;4.00;;;17.40;99.90;19.60;97732.00;;;;4971536;28;20203;-68
2022/10/29 09:19:49;;;;;;;7.13;3.77;;;17.50;99.90;19.70;97722.00;;;;4971586;28;20198;-68
2022/10/29 09:22:46;;;;;;;6.73;3.50;;;17.80;99.90;19.70;97723.00;;;;4974365;28;20248;-68
2022/10/29 09:25:46;;;;;;;4.17;3.10;;;17.90;99.90;19.80;97720.00;;;;4972017;28;20283;-69
2022/10/29 09:28:53;;;;;;;6.47;5.53;;;18.10;99.90;19.80;97710.00;;;;4970778;28;20632;-68
2022/10/29 09:31:47;;;;;;;5.47;3.20;;;18.10;99.90;19.80;97715.00;;;;4979884;28;20219;-68
2022/10/29 09:34:42;;;;;;;4.07;3.03;;;18.20;99.90;19.80;97725.00;;;;4967797;28;20230;-69
2022/10/29 09:37:44;;;;;;;4.43;2.80;;;18.30;99.90;20.30;97730.00;;;;4970114;28;20206;-69
2022/10/29 09:40:37;;;;;;;6.70;3.20;;;18.40;99.90;20.80;97728.00;;;;4969500;28;20223;-69
2022/10/29 09:43:38;;;;;;;7.33;3.13;;;18.60;99.90;20.80;97724.00;;;;4971459;28;20243;-69
2022/10/29 09:46:37;;;;;;;5.50;2.97;;;18.80;99.90;21.00;97718.00;;;;4961920;28;20207;-68
2022/10/29 09:49:42;;;;;;;5.13;3.10;;;19.00;99.90;21.00;97706.00;;;;4961271;28;20252;-69
2022/10/29 09:52:35;;;;;;;4.33;2.87;;;19.10;99.90;21.70;97708.00;;;;4961455;28;20253;-68
2022/10/29 09:55:29;;;;;;;5.80;3.67;;;19.30;99.90;21.80;97706.00;;;;4960205;28;20273;-68
2022/10/29 09:58:21;;;;;;;10.77;3.10;;;19.60;99.90;22.00;97705.00;;;;4973209;28;20210;-69
2022/10/29 10:01:10;;;;;;;5.33;3.03;;;19.80;99.90;22.00;97704.00;;;;4971401;28;20223;-68
2022/10/29 10:04:13;;;;;;;7.13;3.50;;;19.90;99.90;22.30;97700.00;;;;4969989;28;20226;-68
2022/10/29 10:07:07;;;;;;;7.93;2.70;;;20.10;99.90;21.90;97689.00;;;;4977705;28;20202;-69
2022/10/29 10:09:58;;;;;;;5.53;3.10;;;20.20;99.90;22.60;97693.00;;;;4965313;28;20203;-68
2022/10/29 10:12:50;;;;;;;5.70;2.83;;;20.40;99.90;22.50;97691.00;;;;4964924;28;20248;-69
2022/10/29 10:15:39;;;;;;;5.37;3.67;;;20.60;99.90;23.10;97679.00;;;;4974309;28;20606;-69
2022/10/29 10:18:40;;;;;;;4.83;3.03;;;21.10;99.90;23.00;97684.00;;;;4968571;28;20199;-69
2022/10/29 10:21:32;;;;;;;8.07;3.53;;;21.50;99.90;24.00;97675.00;;;;4967917;28;20306;-69
2022/10/29 10:24:31;;;;;;;4.40;2.93;;;22.10;99.90;23.90;97667.00;;;;4965725;28;20282;-70
2022/10/29 10:27:30;;;;;;;8.70;3.37;;;22.70;99.50;24.00;97666.00;;;;4966704;28;20549;-70
2022/10/29 10:30:22;;;;;;;3.27;2.53;;;23.00;98.20;24.00;97665.00;;;;4962434;28;20227;-69
2022/10/29 10:33:23;;;;;;;10.70;3.93;;;23.10;96.30;24.20;97665.00;;;;4970543;28;20344;-70
2022/10/29 10:36:12;;;;;;;6.57;4.43;;;23.10;96.40;24.10;97648.00;;;;4965153;28;20223;-68
2022/10/29 10:39:01;;;;;;;9.67;3.90;;;23.10;95.40;24.80;97658.00;;;;4975335;28;20260;-70
2022/10/29 10:41:51;;;;;;;3.67;2.50;;;23.20;95.40;24.50;97652.00;;;;4972551;28;20235;-70
2022/10/29 10:44:47;;;;;;;4.13;2.80;;;23.30;94.20;24.70;97645.00;;;;4964118;28;20230;-69
2022/10/29 10:47:42;;;;;;;11.43;4.60;;;23.40;94.10;25.60;97646.00;;;;4968729;28;20208;-70
2022/10/29 10:50:33;;;;;;;10.47;6.43;;;23.60;94.00;25.70;97634.00;;;;4964785;28;20259;-70
2022/10/29 10:53:23;;;;;;;3.73;3.30;;;23.90;93.10;25.50;97638.00;;;;4964588;28;20255;-70
2022/10/29 10:56:21;;;;;;;5.83;2.90;;;24.00;92.10;25.40;97628.00;;;;4969163;28;20224;-69
2022/10/29 10:59:15;;;;;;;8.20;2.83;;;24.00;91.70;25.60;97625.00;;;;4964148;28;20211;-72
2022/10/29 11:02:06;;;;;;;3.77;3.03;;;24.10;91.10;26.30;97623.00;;;;4969368;28;20728;-71
2022/10/29 11:05:03;;;;;;;4.40;2.20;;;24.30;91.10;26.20;97623.00;;;;4973853;28;20209;-71
2022/10/29 11:07:59;;;;;;;6.00;2.87;;;24.50;90.00;27.10;97622.00;;;;4966044;28;20443;-70
2022/10/29 11:10:54;;;;;;;3.37;2.23;;;24.70;90.30;26.70;97614.00;;;;4974721;28;20238;-70
2022/10/29 11:13:43;;;;;;;6.30;2.87;;;25.00;87.40;26.20;97623.00;;;;4961886;28;20244;-69
2022/10/29 11:16:40;;;;;;;3.37;2.33;;;24.90;85.90;26.60;97622.00;;;;4969930;28;20248;-70
2022/10/29 11:19:34;;;;;;;7.03;2.67;;;25.00;85.70;26.80;97622.00;;;;4978941;28;20706;-69
2022/10/29 11:22:30;;;;;;;4.90;2.97;;;25.20;84.00;27.50;97626.00;;;;4961770;28;20222;-69
2022/10/29 11:25:28;;;;;;;4.63;2.77;;;25.30;85.50;26.40;97632.00;;;;4972999;28;20233;-72
2022/10/29 11:28:24;;;;;;;5.50;2.30;;;25.20;82.90;25.70;97633.00;;;;4973461;28;20200;-69
2022/10/29 11:31:20;;;;;;;6.97;3.03;;;24.70;83.50;26.10;97633.00;;;;4973285;28;20241;-70
2022/10/29 11:34:16;;;;;;;6.30;2.33;;;24.50;84.60;25.70;97638.00;;;;4971040;28;20213;-73
2022/10/29 11:37:20;;;;;;;4.73;2.40;;;24.20;84.30;26.10;97611.00;;;;4961833;28;20242;-70
2022/10/29 11:40:16;;;;;;;4.90;2.67;;;24.30;84.90;26.40;97610.00;;;;4954849;28;20610;-71
2022/10/29 11:43:11;;;;;;;4.03;2.10;;;24.60;83.40;27.10;97610.00;;;;4973806;28;20239;-70
2022/10/29 11:46:08;;;;;;;4.00;2.80;;;25.00;83.10;27.80;97611.00;;;;4963183;28;20293;-70
2022/10/29 11:49:12;;;;;;;8.27;2.73;;;25.30;83.30;28.30;97620.00;;;;4981145;28;20238;-70
2022/10/29 11:52:09;;;;;;;6.47;2.37;;;25.70;81.10;28.50;97618.00;;;;4974972;28;20651;-71
2022/10/29 11:55:18;;;;;;;5.63;2.23;;;26.10;78.60;28.20;97611.00;;;;4976057;28;20351;-72
2022/10/29 11:58:16;;;;;;;6.83;2.53;;;26.10;78.30;28.20;97608.00;;;;4981864;28;20709;-70
2022/10/29 12:01:16;;;;;;;5.67;2.40;;;26.20;77.20;28.40;97607.00;;;;4970892;28;20249;-72
2022/10/29 12:04:27;;;;;;;5.95;2.60;;;26.30;75.60;28.80;97598.00;;;;4981007;28;20211;-71
2022/10/29 12:07:30;;;;;;;4.35;2.17;;;26.50;76.10;28.60;97593.00;;;;4973811;28;20204;-72
2022/10/29 12:10:40;;;;;;;4.20;2.10;;;26.60;74.10;29.10;97594.00;;;;4974065;28;20269;-71
2022/10/29 12:13:47;;;;;;;7.53;2.28;;;26.90;73.20;28.90;97596.00;;;;4966521;28;20671;-71
2022/10/29 12:16:47;;;;;;;8.93;2.83;;;27.00;72.30;29.10;97585.00;;;;4967015;28;20270;-72
2022/10/29 12:19:45;;;;;;;5.80;2.67;;;27.00;71.70;30.30;97591.00;;;;4962527;28;20208;-72
2022/10/29 12:22:43;;;;;;;6.28;2.45;;;27.50;72.60;30.30;97615.00;;;;4972520;28;20253;-71
2022/10/29 12:25:46;;;;;;;3.33;1.77;;;27.90;70.70;29.60;97629.00;;;;4967130;28;20273;-71
2022/10/29 12:28:47;;;;;;;5.78;2.55;;;27.80;69.50;30.00;97604.00;;;;4970546;28;20257;-71
2022/10/29 12:31:44;;;;;;;6.63;3.85;;;27.80;70.20;30.50;97581.00;;;;4972892;28;20237;-70
2022/10/29 12:34:41;;;;;;;5.53;2.60;;;28.00;69.40;30.70;97579.00;;;;4966485;28;20630;-71
2022/10/29 12:37:42;;;;;;;5.93;3.47;;;28.30;68.50;31.40;97575.00;;;;4960389;28;20234;-71
2022/10/29 12:40:38;;;;;;;9.75;2.80;;;28.60;67.50;31.70;97586.00;;;;4967311;28;20706;-71
2022/10/29 12:43:30;;;;;;;9.88;2.88;;;29.00;66.90;30.80;97604.00;;;;4963846;28;20196;-71
2022/10/29 12:46:30;;;;;;;4.32;2.70;;;29.20;66.10;29.60;97608.00;;;;4955323;28;20217;-72
2022/10/29 12:49:24;;;;;;;6.82;2.40;;;28.80;63.50;28.80;97608.00;;;;4968760;28;20210;-71
2022/10/29 12:52:20;;;;;;;9.25;2.90;;;28.00;65.20;28.70;97550.00;;;;4972202;28;20322;-72
2022/10/29 12:55:12;;;;;;;7.50;2.72;;;27.40;66.90;30.30;97561.00;;;;4968319;28;20210;-71